sensor_id;sensor_type;location;lat;lon;timestamp;pressure;altitude;pressure_sealevel;temperature;humidity
29907;BME280;16776;50.958;10.994;2023-05-16T00:00:49;98117.13;;;12.37;96.07
29907;BME280;16776;50.958;10.994;2023-05-16T00:03:17;98120.47;;;12.39;96.04
29907;BME280;16776;50.958;10.994;2023-05-16T00:05:44;98124.06;;;12.35;96.36
29907;BME280;16776;50.958;10.994;2023-05-16T00:08:11;98126.59;;;12.36;96.29
29907;BME280;16776;50.958;10.994;2023-05-16T00:10:37;98134.28;;;12.38;96.07
29907;BME280;16776;50.958;10.994;2023-05-16T00:13:05;98132.50;;;12.40;96.37
29907;BME280;16776;50.958;10.994;2023-05-16T00:15:32;98121.63;;;12.32;96.33
29907;BME280;16776;50.958;10.994;2023-05-16T00:17:58;98131.78;;;12.36;95.90
29907;BME280;16776;50.958;10.994;2023-05-16T00:20:25;98125.75;;;12.36;96.27
29907;BME280;16776;50.958;10.994;2023-05-16T00:22:52;98132.66;;;12.35;96.13
29907;BME280;16776;50.958;10.994;2023-05-16T00:25:19;98138.75;;;12.34;95.79
29907;BME280;16776;50.958;10.994;2023-05-16T00:27:46;98136.28;;;12.31;95.76
29907;BME280;16776;50.958;10.994;2023-05-16T00:30:14;98137.13;;;12.32;96.09
29907;BME280;16776;50.958;10.994;2023-05-16T00:32:41;98125.31;;;12.26;96.17
29907;BME280;16776;50.958;10.994;2023-05-16T00:35:08;98120.66;;;12.14;96.28
29907;BME280;16776;50.958;10.994;2023-05-16T00:37:36;98138.34;;;12.23;95.77
29907;BME280;16776;50.958;10.994;2023-05-16T00:40:03;98144.50;;;12.20;96.13
29907;BME280;16776;50.958;10.994;2023-05-16T00:42:30;98137.75;;;12.16;96.54
29907;BME280;16776;50.958;10.994;2023-05-16T00:44:56;98140.41;;;12.15;96.00
29907;BME280;16776;50.958;10.994;2023-05-16T00:47:24;98136.16;;;12.14;96.00
29907;BME280;16776;50.958;10.994;2023-05-16T00:49:51;98131.16;;;12.09;96.22
29907;BME280;16776;50.958;10.994;2023-05-16T00:52:18;98134.78;;;12.05;95.77
29907;BME280;16776;50.958;10.994;2023-05-16T00:54:45;98136.56;;;12.03;96.29
29907;BME280;16776;50.958;10.994;2023-05-16T00:57:11;98138.44;;;12.00;96.01
29907;BME280;16776;50.958;10.994;2023-05-16T00:59:38;98151.41;;;11.98;96.22
29907;BME280;16776;50.958;10.994;2023-05-16T01:02:06;98149.84;;;11.94;96.33
29907;BME280;16776;50.958;10.994;2023-05-16T01:04:34;98154.22;;;11.92;95.78
29907;BME280;16776;50.958;10.994;2023-05-16T01:07:01;98151.91;;;11.86;96.35
29907;BME280;16776;50.958;10.994;2023-05-16T01:09:27;98148.72;;;11.79;95.99
29907;BME280;16776;50.958;10.994;2023-05-16T01:11:59;98141.81;;;11.80;96.41
29907;BME280;16776;50.958;10.994;2023-05-16T01:14:35;98144.41;;;11.80;96.56
29907;BME280;16776;50.958;10.994;2023-05-16T01:17:06;98154.16;;;11.72;96.68
29907;BME280;16776;50.958;10.994;2023-05-16T01:19:49;98156.66;;;11.75;96.46
29907;BME280;16776;50.958;10.994;2023-05-16T01:22:27;98167.97;;;11.71;96.02
29907;BME280;16776;50.958;10.994;2023-05-16T01:25:04;98169.78;;;11.69;96.34
29907;BME280;16776;50.958;10.994;2023-05-16T01:27:34;98176.00;;;11.63;96.73
29907;BME280;16776;50.958;10.994;2023-05-16T01:30:12;98172.50;;;11.64;96.18
29907;BME280;16776;50.958;10.994;2023-05-16T01:32:39;98163.44;;;11.54;96.08
29907;BME280;16776;50.958;10.994;2023-05-16T01:35:07;98165.16;;;11.54;96.26
29907;BME280;16776;50.958;10.994;2023-05-16T01:37:38;98168.59;;;11.54;96.53
29907;BME280;16776;50.958;10.994;2023-05-16T01:40:08;98169.59;;;11.50;96.44
29907;BME280;16776;50.958;10.994;2023-05-16T01:42:43;98166.91;;;11.53;97.31
29907;BME280;16776;50.958;10.994;2023-05-16T01:45:11;98166.84;;;11.55;96.16
29907;BME280;16776;50.958;10.994;2023-05-16T01:47:41;98176.72;;;11.43;97.46
29907;BME280;16776;50.958;10.994;2023-05-16T01:50:13;98177.41;;;11.49;97.16
29907;BME280;16776;50.958;10.994;2023-05-16T01:52:44;98182.50;;;11.50;97.02
29907;BME280;16776;50.958;10.994;2023-05-16T01:55:15;98166.56;;;11.39;96.95
29907;BME280;16776;50.958;10.994;2023-05-16T01:57:46;98180.81;;;11.49;97.18
29907;BME280;16776;50.958;10.994;2023-05-16T02:00:14;98181.81;;;11.45;97.65
29907;BME280;16776;50.958;10.994;2023-05-16T02:02:40;98189.50;;;11.47;97.20
29907;BME280;16776;50.958;10.994;2023-05-16T02:05:07;98200.69;;;11.45;97.24
29907;BME280;16776;50.958;10.994;2023-05-16T02:07:34;98202.38;;;11.47;97.37
29907;BME280;16776;50.958;10.994;2023-05-16T02:10:00;98204.97;;;11.47;97.37
29907;BME280;16776;50.958;10.994;2023-05-16T02:12:27;98201.50;;;11.48;97.56
29907;BME280;16776;50.958;10.994;2023-05-16T02:14:55;98204.88;;;11.50;97.72
29907;BME280;16776;50.958;10.994;2023-05-16T02:17:21;98203.19;;;11.49;98.06
29907;BME280;16776;50.958;10.994;2023-05-16T02:19:48;98205.72;;;11.50;97.49
29907;BME280;16776;50.958;10.994;2023-05-16T02:22:14;98201.25;;;11.54;97.91
29907;BME280;16776;50.958;10.994;2023-05-16T02:24:41;98201.22;;;11.55;97.93
29907;BME280;16776;50.958;10.994;2023-05-16T02:27:07;98211.47;;;11.57;98.04
29907;BME280;16776;50.958;10.994;2023-05-16T02:29:34;98208.81;;;11.58;97.78
29907;BME280;16776;50.958;10.994;2023-05-16T02:32:02;98209.59;;;11.62;98.23
29907;BME280;16776;50.958;10.994;2023-05-16T02:34:28;98201.91;;;11.60;98.16
29907;BME280;16776;50.958;10.994;2023-05-16T02:36:55;98202.75;;;11.61;98.19
29907;BME280;16776;50.958;10.994;2023-05-16T02:39:22;98206.13;;;11.63;97.83
29907;BME280;16776;50.958;10.994;2023-05-16T02:41:48;98214.75;;;11.62;97.70
29907;BME280;16776;50.958;10.994;2023-05-16T02:44:15;98213.91;;;11.61;97.72
29907;BME280;16776;50.958;10.994;2023-05-16T02:46:41;98219.97;;;11.60;97.43
29907;BME280;16776;50.958;10.994;2023-05-16T02:49:09;98217.38;;;11.60;97.43
29907;BME280;16776;50.958;10.994;2023-05-16T02:51:36;98221.78;;;11.57;97.99
29907;BME280;16776;50.958;10.994;2023-05-16T02:54:02;98229.59;;;11.55;97.73
29907;BME280;16776;50.958;10.994;2023-05-16T02:56:29;98227.06;;;11.54;97.66
29907;BME280;16776;50.958;10.994;2023-05-16T02:58:55;98228.84;;;11.52;97.97
29907;BME280;16776;50.958;10.994;2023-05-16T03:01:22;98230.66;;;11.50;97.74
29907;BME280;16776;50.958;10.994;2023-05-16T03:03:49;98235.81;;;11.50;98.19
29907;BME280;16776;50.958;10.994;2023-05-16T03:06:17;98231.50;;;11.50;98.03
29907;BME280;16776;50.958;10.994;2023-05-16T03:08:43;98230.75;;;11.47;97.73
29907;BME280;16776;50.958;10.994;2023-05-16T03:11:10;98232.56;;;11.44;97.82
29907;BME280;16776;50.958;10.994;2023-05-16T03:13:36;98238.63;;;11.43;97.79
29907;BME280;16776;50.958;10.994;2023-05-16T03:16:04;98230.09;;;11.41;97.52
29907;BME280;16776;50.958;10.994;2023-05-16T03:18:31;98231.03;;;11.39;97.74
29907;BME280;16776;50.958;10.994;2023-05-16T03:20:57;98234.56;;;11.36;97.33
29907;BME280;16776;50.958;10.994;2023-05-16T03:23:30;98237.03;;;11.39;97.54
29907;BME280;16776;50.958;10.994;2023-05-16T03:25:56;98230.56;;;11.28;97.39
29907;BME280;16776;50.958;10.994;2023-05-16T03:28:23;98232.47;;;11.23;96.97
29907;BME280;16776;50.958;10.994;2023-05-16T03:30:50;98231.78;;;11.19;97.01
29907;BME280;16776;50.958;10.994;2023-05-16T03:33:16;98237.91;;;11.15;96.99
29907;BME280;16776;50.958;10.994;2023-05-16T03:35:43;98240.59;;;11.12;97.29
29907;BME280;16776;50.958;10.994;2023-05-16T03:38:10;98248.47;;;11.08;96.98
29907;BME280;16776;50.958;10.994;2023-05-16T03:40:38;98244.28;;;11.05;96.93
29907;BME280;16776;50.958;10.994;2023-05-16T03:43:05;98250.59;;;10.96;96.74
29907;BME280;16776;50.958;10.994;2023-05-16T03:45:31;98253.34;;;10.92;96.99
29907;BME280;16776;50.958;10.994;2023-05-16T03:47:58;98252.69;;;10.85;97.04
29907;BME280;16776;50.958;10.994;2023-05-16T03:50:25;98253.75;;;10.80;96.76
29907;BME280;16776;50.958;10.994;2023-05-16T03:52:51;98256.53;;;10.74;96.94
29907;BME280;16776;50.958;10.994;2023-05-16T03:55:18;98264.47;;;10.68;96.88
29907;BME280;16776;50.958;10.994;2023-05-16T03:57:48;98254.44;;;10.58;96.95
29907;BME280;16776;50.958;10.994;2023-05-16T04:00:16;98270.81;;;10.56;96.87
29907;BME280;16776;50.958;10.994;2023-05-16T04:02:43;98272.72;;;10.49;97.11
29907;BME280;16776;50.958;10.994;2023-05-16T04:05:10;98270.34;;;10.43;96.89
29907;BME280;16776;50.958;10.994;2023-05-16T04:07:38;98271.38;;;10.38;96.83
29907;BME280;16776;50.958;10.994;2023-05-16T04:10:05;98277.56;;;10.32;97.15
29907;BME280;16776;50.958;10.994;2023-05-16T04:12:32;98283.69;;;10.30;97.28
29907;BME280;16776;50.958;10.994;2023-05-16T04:15:00;98292.22;;;10.30;97.52
29907;BME280;16776;50.958;10.994;2023-05-16T04:17:26;98287.22;;;10.25;97.62
29907;BME280;16776;50.958;10.994;2023-05-16T04:19:53;98292.34;;;10.25;97.90
29907;BME280;16776;50.958;10.994;2023-05-16T04:22:20;98301.81;;;10.25;97.75
29907;BME280;16776;50.958;10.994;2023-05-16T04:24:47;98297.63;;;10.22;97.89
29907;BME280;16776;50.958;10.994;2023-05-16T04:27:13;98312.09;;;10.25;97.88
29907;BME280;16776;50.958;10.994;2023-05-16T04:29:40;98319.78;;;10.27;97.98
29907;BME280;16776;50.958;10.994;2023-05-16T04:32:08;98320.53;;;10.30;100.00
29907;BME280;16776;50.958;10.994;2023-05-16T04:34:35;98328.09;;;10.36;100.00
29907;BME280;16776;50.958;10.994;2023-05-16T04:37:02;98326.75;;;10.52;100.00
29907;BME280;16776;50.958;10.994;2023-05-16T04:39:31;98320.91;;;10.74;100.00
29907;BME280;16776;50.958;10.994;2023-05-16T04:41:58;98325.47;;;10.92;100.00
29907;BME280;16776;50.958;10.994;2023-05-16T04:44:25;98331.84;;;11.07;99.13
29907;BME280;16776;50.958;10.994;2023-05-16T04:46:52;98330.69;;;11.15;99.00
29907;BME280;16776;50.958;10.994;2023-05-16T04:49:20;98345.06;;;11.22;98.53
29907;BME280;16776;50.958;10.994;2023-05-16T04:51:47;98349.38;;;11.22;98.01
29907;BME280;16776;50.958;10.994;2023-05-16T04:54:16;98349.38;;;11.22;97.97
29907;BME280;16776;50.958;10.994;2023-05-16T04:56:43;98357.97;;;11.21;97.94
29907;BME280;16776;50.958;10.994;2023-05-16T04:59:09;98343.53;;;11.17;97.93
29907;BME280;16776;50.958;10.994;2023-05-16T05:01:36;98352.09;;;11.17;97.62
29907;BME280;16776;50.958;10.994;2023-05-16T05:04:03;98356.50;;;11.14;97.67
29907;BME280;16776;50.958;10.994;2023-05-16T05:06:32;98362.50;;;11.14;97.72
29907;BME280;16776;50.958;10.994;2023-05-16T05:08:59;98360.94;;;11.10;97.82
29907;BME280;16776;50.958;10.994;2023-05-16T05:11:26;98365.28;;;11.08;97.50
29907;BME280;16776;50.958;10.994;2023-05-16T05:13:52;98355.88;;;11.07;97.50
29907;BME280;16776;50.958;10.994;2023-05-16T05:16:21;98361.09;;;11.06;97.45
29907;BME280;16776;50.958;10.994;2023-05-16T05:18:48;98367.19;;;11.03;97.67
29907;BME280;16776;50.958;10.994;2023-05-16T05:21:14;98374.22;;;10.98;97.56
29907;BME280;16776;50.958;10.994;2023-05-16T05:23:42;98381.09;;;10.97;97.60
29907;BME280;16776;50.958;10.994;2023-05-16T05:26:10;98378.69;;;10.93;97.75
29907;BME280;16776;50.958;10.994;2023-05-16T05:28:36;98380.50;;;10.89;97.43
29907;BME280;16776;50.958;10.994;2023-05-16T05:31:06;98373.63;;;10.90;97.76
29907;BME280;16776;50.958;10.994;2023-05-16T05:33:33;98377.28;;;10.83;97.31
29907;BME280;16776;50.958;10.994;2023-05-16T05:36:00;98377.38;;;10.80;97.65
29907;BME280;16776;50.958;10.994;2023-05-16T05:38:26;98385.16;;;10.78;97.81
29907;BME280;16776;50.958;10.994;2023-05-16T05:40:54;98386.00;;;10.79;97.71
29907;BME280;16776;50.958;10.994;2023-05-16T05:43:21;98388.72;;;10.74;97.65
29907;BME280;16776;50.958;10.994;2023-05-16T05:45:48;98395.66;;;10.72;97.95
29907;BME280;16776;50.958;10.994;2023-05-16T05:48:14;98399.16;;;10.70;97.83
29907;BME280;16776;50.958;10.994;2023-05-16T05:50:41;98400.03;;;10.69;97.69
29907;BME280;16776;50.958;10.994;2023-05-16T05:53:08;98393.31;;;10.64;98.06
29907;BME280;16776;50.958;10.994;2023-05-16T05:55:34;98396.75;;;10.63;98.00
29907;BME280;16776;50.958;10.994;2023-05-16T05:58:02;98393.31;;;10.64;98.02
29907;BME280;16776;50.958;10.994;2023-05-16T06:00:29;98402.03;;;10.60;98.14
29907;BME280;16776;50.958;10.994;2023-05-16T06:02:55;98405.47;;;10.59;98.16
29907;BME280;16776;50.958;10.994;2023-05-16T06:05:22;98402.06;;;10.59;98.15
29907;BME280;16776;50.958;10.994;2023-05-16T06:07:50;98407.22;;;10.59;98.20
29907;BME280;16776;50.958;10.994;2023-05-16T06:10:19;98408.09;;;10.58;98.28
29907;BME280;16776;50.958;10.994;2023-05-16T06:12:45;98411.63;;;10.55;98.24
29907;BME280;16776;50.958;10.994;2023-05-16T06:15:13;98402.94;;;10.58;97.99
29907;BME280;16776;50.958;10.994;2023-05-16T06:17:40;98406.41;;;10.57;98.10
29907;BME280;16776;50.958;10.994;2023-05-16T06:20:07;98407.25;;;10.57;97.85
29907;BME280;16776;50.958;10.994;2023-05-16T06:22:34;98412.41;;;10.57;97.86
29907;BME280;16776;50.958;10.994;2023-05-16T06:25:00;98421.84;;;10.57;97.90
29907;BME280;16776;50.958;10.994;2023-05-16T06:27:27;98422.69;;;10.57;98.09
29907;BME280;16776;50.958;10.994;2023-05-16T06:29:54;98421.84;;;10.57;98.21
29907;BME280;16776;50.958;10.994;2023-05-16T06:32:22;98434.66;;;10.60;98.23
29907;BME280;16776;50.958;10.994;2023-05-16T06:34:49;98433.00;;;10.57;98.26
29907;BME280;16776;50.958;10.994;2023-05-16T06:37:15;98432.13;;;10.58;98.06
29907;BME280;16776;50.958;10.994;2023-05-16T06:39:45;98436.38;;;10.59;98.04
29907;BME280;16776;50.958;10.994;2023-05-16T06:42:12;98436.38;;;10.59;98.13
29907;BME280;16776;50.958;10.994;2023-05-16T06:44:38;98439.00;;;10.58;98.05
29907;BME280;16776;50.958;10.994;2023-05-16T06:47:05;98438.13;;;10.59;98.41
29907;BME280;16776;50.958;10.994;2023-05-16T06:49:33;98440.66;;;10.60;98.21
29907;BME280;16776;50.958;10.994;2023-05-16T06:52:03;98442.38;;;10.60;98.52
29907;BME280;16776;50.958;10.994;2023-05-16T06:54:29;98438.94;;;10.61;98.17
29907;BME280;16776;50.958;10.994;2023-05-16T06:56:56;98440.53;;;10.63;98.70
29907;BME280;16776;50.958;10.994;2023-05-16T06:59:23;98433.00;;;10.57;98.62
29907;BME280;16776;50.958;10.994;2023-05-16T07:01:49;98454.13;;;10.69;98.66
29907;BME280;16776;50.958;10.994;2023-05-16T07:04:16;98447.16;;;10.72;98.51
29907;BME280;16776;50.958;10.994;2023-05-16T07:06:44;98448.75;;;10.76;98.55
29907;BME280;16776;50.958;10.994;2023-05-16T07:09:13;98456.47;;;10.76;98.56
29907;BME280;16776;50.958;10.994;2023-05-16T07:11:41;98450.41;;;10.79;98.71
29907;BME280;16776;50.958;10.994;2023-05-16T07:14:08;98450.34;;;10.80;98.79
29907;BME280;16776;50.958;10.994;2023-05-16T07:16:35;98461.44;;;10.82;98.43
29907;BME280;16776;50.958;10.994;2023-05-16T07:19:01;98459.66;;;10.84;98.48
29907;BME280;16776;50.958;10.994;2023-05-16T07:21:28;98463.94;;;10.85;98.26
29907;BME280;16776;50.958;10.994;2023-05-16T07:23:56;98462.94;;;10.89;98.53
29907;BME280;16776;50.958;10.994;2023-05-16T07:26:23;98464.66;;;10.89;98.19
29907;BME280;16776;50.958;10.994;2023-05-16T07:28:51;98468.09;;;10.89;98.25
29907;BME280;16776;50.958;10.994;2023-05-16T07:31:18;98464.63;;;10.90;97.83
29907;BME280;16776;50.958;10.994;2023-05-16T07:33:44;98469.78;;;10.90;97.77
29907;BME280;16776;50.958;10.994;2023-05-16T07:36:13;98473.28;;;10.88;97.97
29907;BME280;16776;50.958;10.994;2023-05-16T07:38:39;98471.66;;;10.85;97.84
29907;BME280;16776;50.958;10.994;2023-05-16T07:41:07;98486.25;;;10.86;98.22
29907;BME280;16776;50.958;10.994;2023-05-16T07:43:34;98477.78;;;10.81;98.27
29907;BME280;16776;50.958;10.994;2023-05-16T07:46:01;98481.19;;;10.82;98.53
29907;BME280;16776;50.958;10.994;2023-05-16T07:48:27;98481.19;;;10.82;98.51
29907;BME280;16776;50.958;10.994;2023-05-16T07:50:54;98483.66;;;10.86;98.55
29907;BME280;16776;50.958;10.994;2023-05-16T07:53:27;98485.09;;;10.95;99.29
29907;BME280;16776;50.958;10.994;2023-05-16T07:55:53;98485.72;;;11.03;98.12
29907;BME280;16776;50.958;10.994;2023-05-16T07:58:23;98489.97;;;11.04;98.41
29907;BME280;16776;50.958;10.994;2023-05-16T08:00:49;98488.13;;;11.08;98.04
29907;BME280;16776;50.958;10.994;2023-05-16T08:03:15;98490.63;;;11.11;97.79
29907;BME280;16776;50.958;10.994;2023-05-16T08:05:42;98498.22;;;11.15;97.94
29907;BME280;16776;50.958;10.994;2023-05-16T08:08:09;98487.03;;;11.16;97.60
29907;BME280;16776;50.958;10.994;2023-05-16T08:10:35;98498.06;;;11.20;97.49
29907;BME280;16776;50.958;10.994;2023-05-16T08:13:01;98503.13;;;11.23;97.82
29907;BME280;16776;50.958;10.994;2023-05-16T08:15:29;98492.78;;;11.24;97.20
29907;BME280;16776;50.958;10.994;2023-05-16T08:17:56;98486.66;;;11.27;97.37
29907;BME280;16776;50.958;10.994;2023-05-16T08:20:23;98493.44;;;11.31;97.67
29907;BME280;16776;50.958;10.994;2023-05-16T08:22:49;98492.53;;;11.32;97.51
29907;BME280;16776;50.958;10.994;2023-05-16T08:25:16;98483.84;;;11.34;97.56
29907;BME280;16776;50.958;10.994;2023-05-16T08:27:43;98484.53;;;11.39;97.22
29907;BME280;16776;50.958;10.994;2023-05-16T08:30:10;98486.16;;;11.43;97.50
29907;BME280;16776;50.958;10.994;2023-05-16T08:32:38;98485.09;;;11.49;97.91
29907;BME280;16776;50.958;10.994;2023-05-16T08:35:05;98483.16;;;11.56;98.04
29907;BME280;16776;50.958;10.994;2023-05-16T08:37:31;98479.56;;;11.61;97.73
29907;BME280;16776;50.958;10.994;2023-05-16T08:39:59;98481.94;;;11.67;98.05
29907;BME280;16776;50.958;10.994;2023-05-16T08:42:25;98484.28;;;11.75;97.95
29907;BME280;16776;50.958;10.994;2023-05-16T08:44:52;98477.22;;;11.80;97.78
29907;BME280;16776;50.958;10.994;2023-05-16T08:47:19;98480.44;;;11.87;97.36
29907;BME280;16776;50.958;10.994;2023-05-16T08:49:50;98478.53;;;11.92;97.57
29907;BME280;16776;50.958;10.994;2023-05-16T08:52:18;98482.72;;;11.96;97.37
29907;BME280;16776;50.958;10.994;2023-05-16T08:54:46;98479.97;;;12.00;97.29
29907;BME280;16776;50.958;10.994;2023-05-16T08:57:13;98472.94;;;12.04;97.11
29907;BME280;16776;50.958;10.994;2023-05-16T08:59:39;98474.44;;;12.09;97.34
29907;BME280;16776;50.958;10.994;2023-05-16T09:02:07;98477.78;;;12.13;97.59
29907;BME280;16776;50.958;10.994;2023-05-16T09:04:34;98477.63;;;12.17;97.30
29907;BME280;16776;50.958;10.994;2023-05-16T09:07:07;98486.03;;;12.22;97.13
29907;BME280;16776;50.958;10.994;2023-05-16T09:09:33;98489.31;;;12.28;97.69
29907;BME280;16776;50.958;10.994;2023-05-16T09:11:59;98495.25;;;12.30;97.30
29907;BME280;16776;50.958;10.994;2023-05-16T09:14:26;98493.50;;;12.30;97.14
29907;BME280;16776;50.958;10.994;2023-05-16T09:17:02;98494.34;;;12.31;97.02
29907;BME280;16776;50.958;10.994;2023-05-16T09:19:31;98494.41;;;12.29;97.00
29907;BME280;16776;50.958;10.994;2023-05-16T09:21:58;98497.06;;;12.28;96.97
29907;BME280;16776;50.958;10.994;2023-05-16T09:24:28;98499.69;;;12.26;96.81
29907;BME280;16776;50.958;10.994;2023-05-16T09:26:55;98504.00;;;12.26;96.23
29907;BME280;16776;50.958;10.994;2023-05-16T09:29:21;98504.91;;;12.24;96.81
29907;BME280;16776;50.958;10.994;2023-05-16T09:31:48;98498.91;;;12.24;96.77
29907;BME280;16776;50.958;10.994;2023-05-16T09:34:17;98499.69;;;12.26;96.35
29907;BME280;16776;50.958;10.994;2023-05-16T09:36:48;98501.31;;;12.29;96.53
29907;BME280;16776;50.958;10.994;2023-05-16T09:39:19;98503.75;;;12.33;96.57
29907;BME280;16776;50.958;10.994;2023-05-16T09:41:47;98507.09;;;12.35;97.04
29907;BME280;16776;50.958;10.994;2023-05-16T09:44:16;98506.16;;;12.38;96.61
29907;BME280;16776;50.958;10.994;2023-05-16T09:46:43;98505.22;;;12.40;96.76
29907;BME280;16776;50.958;10.994;2023-05-16T09:49:10;98512.00;;;12.43;96.58
29907;BME280;16776;50.958;10.994;2023-05-16T09:51:36;98509.31;;;12.46;97.00
29907;BME280;16776;50.958;10.994;2023-05-16T09:54:06;98513.47;;;12.50;96.91
29907;BME280;16776;50.958;10.994;2023-05-16T09:56:32;98518.53;;;12.53;97.01
29907;BME280;16776;50.958;10.994;2023-05-16T09:59:00;98520.13;;;12.55;96.57
29907;BME280;16776;50.958;10.994;2023-05-16T10:01:35;98524.25;;;12.61;96.90
29907;BME280;16776;50.958;10.994;2023-05-16T10:04:01;98524.13;;;12.66;96.74
29907;BME280;16776;50.958;10.994;2023-05-16T10:06:28;98525.63;;;12.71;96.74
29907;BME280;16776;50.958;10.994;2023-05-16T10:08:54;98543.50;;;12.77;96.85
29907;BME280;16776;50.958;10.994;2023-05-16T10:11:21;98548.44;;;12.83;96.74
29907;BME280;16776;50.958;10.994;2023-05-16T10:13:47;98559.44;;;12.88;96.53
29907;BME280;16776;50.958;10.994;2023-05-16T10:16:18;98557.66;;;12.90;96.37
29907;BME280;16776;50.958;10.994;2023-05-16T10:18:46;98565.34;;;12.92;96.23
29907;BME280;16776;50.958;10.994;2023-05-16T10:21:13;98564.56;;;12.90;96.38
29907;BME280;16776;50.958;10.994;2023-05-16T10:23:40;98552.56;;;12.87;96.04
29907;BME280;16776;50.958;10.994;2023-05-16T10:26:07;98556.06;;;12.86;96.32
29907;BME280;16776;50.958;10.994;2023-05-16T10:28:34;98557.75;;;12.87;96.23
29907;BME280;16776;50.958;10.994;2023-05-16T10:31:00;98549.09;;;12.88;96.51
29907;BME280;16776;50.958;10.994;2023-05-16T10:33:28;98554.16;;;12.91;96.47
29907;BME280;16776;50.958;10.994;2023-05-16T10:35:55;98543.69;;;12.94;96.30
29907;BME280;16776;50.958;10.994;2023-05-16T10:38:22;98534.94;;;12.98;96.42
29907;BME280;16776;50.958;10.994;2023-05-16T10:40:51;98547.63;;;13.05;97.08
29907;BME280;16776;50.958;10.994;2023-05-16T10:43:24;98543.88;;;13.12;96.59
29907;BME280;16776;50.958;10.994;2023-05-16T10:45:54;98549.63;;;13.20;96.91
29907;BME280;16776;50.958;10.994;2023-05-16T10:48:28;98551.06;;;13.27;96.71
29907;BME280;16776;50.958;10.994;2023-05-16T10:50:55;98553.31;;;13.36;96.64
29907;BME280;16776;50.958;10.994;2023-05-16T10:53:22;98549.59;;;13.43;96.73
29907;BME280;16776;50.958;10.994;2023-05-16T10:55:49;98539.00;;;13.49;96.64
29907;BME280;16776;50.958;10.994;2023-05-16T10:58:23;98539.53;;;13.57;96.65
29907;BME280;16776;50.958;10.994;2023-05-16T11:03:32;98547.59;;;13.71;96.40
29907;BME280;16776;50.958;10.994;2023-05-16T11:05:59;98546.56;;;13.75;95.99
29907;BME280;16776;50.958;10.994;2023-05-16T11:08:26;98544.69;;;13.79;95.82
29907;BME280;16776;50.958;10.994;2023-05-16T11:13:37;98554.75;;;13.87;95.77
29907;BME280;16776;50.958;10.994;2023-05-16T11:16:25;98558.09;;;13.89;95.71
29907;BME280;16776;50.958;10.994;2023-05-16T11:18:53;98553.69;;;13.91;95.48
29907;BME280;16776;50.958;10.994;2023-05-16T11:21:19;98557.97;;;13.92;95.57
29907;BME280;16776;50.958;10.994;2023-05-16T11:23:52;98561.34;;;13.94;95.23
29907;BME280;16776;50.958;10.994;2023-05-16T11:26:37;98555.28;;;13.95;94.67
29907;BME280;16776;50.958;10.994;2023-05-16T11:29:03;98555.06;;;13.99;94.97
29907;BME280;16776;50.958;10.994;2023-05-16T11:31:30;98555.66;;;14.06;95.29
29907;BME280;16776;50.958;10.994;2023-05-16T11:33:57;98551.66;;;14.19;95.71
29907;BME280;16776;50.958;10.994;2023-05-16T11:36:24;98556.25;;;14.33;95.84
29907;BME280;16776;50.958;10.994;2023-05-16T11:38:54;98555.38;;;14.52;96.05
29907;BME280;16776;50.958;10.994;2023-05-16T11:41:30;98564.88;;;14.72;95.70
29907;BME280;16776;50.958;10.994;2023-05-16T11:44:00;98556.34;;;14.89;95.74
29907;BME280;16776;50.958;10.994;2023-05-16T11:46:27;98560.75;;;15.06;95.65
29907;BME280;16776;50.958;10.994;2023-05-16T11:48:53;98553.25;;;15.18;95.55
29907;BME280;16776;50.958;10.994;2023-05-16T11:51:21;98554.59;;;15.27;95.27
29907;BME280;16776;50.958;10.994;2023-05-16T11:53:47;98564.75;;;15.31;94.53
29907;BME280;16776;50.958;10.994;2023-05-16T11:56:16;98555.16;;;15.33;94.39
29907;BME280;16776;50.958;10.994;2023-05-16T11:58:46;98569.84;;;15.34;94.33
29907;BME280;16776;50.958;10.994;2023-05-16T12:01:12;98566.31;;;15.35;94.08
29907;BME280;16776;50.958;10.994;2023-05-16T12:03:39;98557.59;;;15.36;94.00
29907;BME280;16776;50.958;10.994;2023-05-16T12:06:05;98557.47;;;15.39;94.36
29907;BME280;16776;50.958;10.994;2023-05-16T12:08:34;98554.53;;;15.47;94.68
29907;BME280;16776;50.958;10.994;2023-05-16T12:11:01;98554.06;;;15.56;94.36
29907;BME280;16776;50.958;10.994;2023-05-16T12:13:27;98559.78;;;15.63;94.18
29907;BME280;16776;50.958;10.994;2023-05-16T12:15:53;98553.47;;;15.68;94.03
29907;BME280;16776;50.958;10.994;2023-05-16T12:18:20;98555.75;;;15.74;93.72
29907;BME280;16776;50.958;10.994;2023-05-16T12:20:48;98564.09;;;15.81;94.11
29907;BME280;16776;50.958;10.994;2023-05-16T12:23:15;98553.41;;;15.87;94.08
29907;BME280;16776;50.958;10.994;2023-05-16T12:25:47;98556.63;;;15.92;93.57
29907;BME280;16776;50.958;10.994;2023-05-16T12:28:14;98562.38;;;15.99;93.50
29907;BME280;16776;50.958;10.994;2023-05-16T12:30:41;98565.56;;;16.04;93.67
29907;BME280;16776;50.958;10.994;2023-05-16T12:33:08;98558.38;;;16.09;93.60
29907;BME280;16776;50.958;10.994;2023-05-16T12:35:36;98562.44;;;16.14;93.54
29907;BME280;16776;50.958;10.994;2023-05-16T12:38:03;98551.81;;;16.19;93.29
29907;BME280;16776;50.958;10.994;2023-05-16T12:40:29;98565.34;;;16.26;93.42
29907;BME280;16776;50.958;10.994;2023-05-16T12:42:57;98559.03;;;16.31;93.24
29907;BME280;16776;50.958;10.994;2023-05-16T12:45:27;98562.16;;;16.38;93.41
29907;BME280;16776;50.958;10.994;2023-05-16T12:47:53;98566.84;;;16.47;93.16
29907;BME280;16776;50.958;10.994;2023-05-16T12:50:20;98575.88;;;16.57;93.09
29907;BME280;16776;50.958;10.994;2023-05-16T12:52:47;98570.25;;;16.65;92.96
29907;BME280;16776;50.958;10.994;2023-05-16T12:55:14;98575.13;;;16.71;92.93
29907;BME280;16776;50.958;10.994;2023-05-16T12:57:41;98574.06;;;16.75;92.35